Mentone, AL (35984)

8:58 PM CDT on August 28, 2016 (GMT -0500)
APRSWXNET | | Change Station

Elev 1721 ft 34.53 °N, 85.63 °W | Updated 33 minutes ago

Clear
Clear
73 °F
Feels Like 72 °F
N
0
Wind Variable Wind from SE
Gusts 1.0 mph

Today
High -- | Low -- °F
--% Chance of Precip.
Yesterday
High -- | Low -- °F
Precip. -- in
Pressure 30.12 in
Visibility 10.0 miles
Clouds Clear
Heat Index 72 °F
Dew Point 69 °F
Humidity 86%
Rainfall in
Snow Depth Not available.
6:12 AM 7:13 PM
Waning Crescent, 12% visible
METAR K4A9 290135Z AUTO 00000KT 10SM CLR 22/19 A3012 RMK AO2
Pressure 30.12 in
Visibility 10.0 miles
Clouds Clear
Heat Index 72 °F
Dew Point 69 °F
Humidity 86%
Rainfall in
Snow Depth Not available.
6:12 AM 7:13 PM
Waning Crescent, 12% visible
METAR K4A9 290135Z AUTO 00000KT 10SM CLR 22/19 A3012 RMK AO2
The area of storminess, previously known as Invest 99-L that we were monitoring for days, finally developed into Tropical Depression Nine near the Florida Keys on Sunday evening.

There remains a large degree of uncertainty around how much this system will strengthen once it gets into the southeast Gulf of Mexico. For now, the clockwise flow around upper-level high pressure over the eastern United States will steer Tropical Depression Nine west-northwest toward the Gulf. That high will weaken by Tuesday, allowing this system to move more north, and then eventually northeast the next several days on a path toward the Florida Gulf Coast.

10-Day Weather Forecast

Almanac

Astronomy

Aug. 28, 2016 Rise Set
Actual Time
Civil Twilight
Nautical Twilight
Astronomical Twilight
Moon
Length of Visible Light
Length of Day
Tomorrow will be .
, % of the Moon is Illuminated

Today's Extremes

State Highs State Lows

Community

WunderPhotos

Upload Photos

1,935,757 photos uploaded!

WunderBlog® & News

Nearby

Air Quality

  Air Quality AQ Index Pollutant
Not available.

Snow Depth

Station Depth Elevation

Earthquake Activity

City Distance Mag. Time & Date
Minimum magnitude displayed is 2.5.

Coastal Water Temperatures

Place Temperature

Stations

Nearby Weather Stations

Station Location Temp. Windchill Dew Point Humidity Wind Precip. Elev Updated Type
                   

Watches & Warnings

There are currently no watches in effect.